sensor_id;sensor_type;location;lat;lon;timestamp;pressure;altitude;pressure_sealevel;temperature;humidity
64402;BME280;50724;42.376;23.768;2023-03-01T00:02:20;93684.84;;;3.70;100.00
64402;BME280;50724;42.376;23.768;2023-03-01T00:05:21;93669.84;;;3.52;100.00
64402;BME280;50724;42.376;23.768;2023-03-01T00:08:22;93672.88;;;3.57;100.00
64402;BME280;50724;42.376;23.768;2023-03-01T00:11:28;93667.50;;;3.36;100.00
64402;BME280;50724;42.376;23.768;2023-03-01T00:14:29;93669.16;;;3.37;100.00
64402;BME280;50724;42.376;23.768;2023-03-01T00:17:29;93663.00;;;3.51;100.00
64402;BME280;50724;42.376;23.768;2023-03-01T00:20:29;93660.88;;;3.44;100.00
64402;BME280;50724;42.376;23.768;2023-03-01T00:23:30;93645.41;;;3.32;100.00
64402;BME280;50724;42.376;23.768;2023-03-01T00:26:31;93637.28;;;3.25;100.00
64402;BME280;50724;42.376;23.768;2023-03-01T00:29:31;93637.94;;;3.16;100.00
64402;BME280;50724;42.376;23.768;2023-03-01T00:32:32;93641.56;;;3.14;100.00
64402;BME280;50724;42.376;23.768;2023-03-01T00:35:33;93645.69;;;3.16;100.00
64402;BME280;50724;42.376;23.768;2023-03-01T00:38:38;93638.09;;;3.02;100.00
64402;BME280;50724;42.376;23.768;2023-03-01T00:41:39;93634.94;;;3.10;100.00
64402;BME280;50724;42.376;23.768;2023-03-01T00:44:40;93626.53;;;2.95;100.00
64402;BME280;50724;42.376;23.768;2023-03-01T00:47:41;93634.50;;;2.92;100.00
64402;BME280;50724;42.376;23.768;2023-03-01T00:50:41;93635.72;;;2.99;100.00
64402;BME280;50724;42.376;23.768;2023-03-01T00:53:42;93629.84;;;2.97;100.00
64402;BME280;50724;42.376;23.768;2023-03-01T00:56:42;93632.41;;;2.97;100.00
64402;BME280;50724;42.376;23.768;2023-03-01T00:59:43;93633.53;;;2.93;100.00
64402;BME280;50724;42.376;23.768;2023-03-01T01:02:43;93624.34;;;3.02;100.00
64402;BME280;50724;42.376;23.768;2023-03-01T01:05:44;93623.06;;;3.07;100.00
64402;BME280;50724;42.376;23.768;2023-03-01T01:08:45;93623.63;;;3.00;100.00
64402;BME280;50724;42.376;23.768;2023-03-01T01:11:50;93621.63;;;3.03;100.00
64402;BME280;50724;42.376;23.768;2023-03-01T01:14:51;93618.22;;;3.03;100.00
64402;BME280;50724;42.376;23.768;2023-03-01T01:17:51;93606.31;;;3.13;100.00
64402;BME280;50724;42.376;23.768;2023-03-01T01:20:51;93607.34;;;3.10;100.00
64402;BME280;50724;42.376;23.768;2023-03-01T01:23:52;93608.63;;;3.05;100.00
64402;BME280;50724;42.376;23.768;2023-03-01T01:26:53;93611.84;;;2.96;100.00
64402;BME280;50724;42.376;23.768;2023-03-01T01:29:53;93608.34;;;2.97;100.00
64402;BME280;50724;42.376;23.768;2023-03-01T01:32:54;93609.03;;;2.99;100.00
64402;BME280;50724;42.376;23.768;2023-03-01T01:35:54;93604.59;;;3.01;100.00
64402;BME280;50724;42.376;23.768;2023-03-01T01:38:55;93609.75;;;3.01;100.00
64402;BME280;50724;42.376;23.768;2023-03-01T01:41:55;93606.75;;;3.07;100.00
64402;BME280;50724;42.376;23.768;2023-03-01T01:45:25;93607.28;;;2.99;100.00
64402;BME280;50724;42.376;23.768;2023-03-01T01:48:48;93604.72;;;2.99;100.00
64402;BME280;50724;42.376;23.768;2023-03-01T01:51:55;93599.34;;;3.02;100.00
64402;BME280;50724;42.376;23.768;2023-03-01T01:55:02;93594.72;;;2.95;100.00
64402;BME280;50724;42.376;23.768;2023-03-01T01:58:05;93593.16;;;2.92;100.00
64402;BME280;50724;42.376;23.768;2023-03-01T02:01:08;93598.53;;;2.89;100.00
64402;BME280;50724;42.376;23.768;2023-03-01T02:04:08;93586.91;;;2.84;100.00
64402;BME280;50724;42.376;23.768;2023-03-01T02:07:17;93585.66;;;3.00;100.00
64402;BME280;50724;42.376;23.768;2023-03-01T02:10:21;93586.13;;;2.94;100.00
64402;BME280;50724;42.376;23.768;2023-03-01T02:13:23;93577.13;;;3.00;100.00
64402;BME280;50724;42.376;23.768;2023-03-01T02:16:25;93580.44;;;2.89;100.00
64402;BME280;50724;42.376;23.768;2023-03-01T02:19:51;93578.41;;;2.82;100.00
64402;BME280;50724;42.376;23.768;2023-03-01T02:22:54;93569.03;;;2.81;100.00
64402;BME280;50724;42.376;23.768;2023-03-01T02:26:21;93577.88;;;2.89;100.00
64402;BME280;50724;42.376;23.768;2023-03-01T02:29:22;93568.66;;;2.98;100.00
64402;BME280;50724;42.376;23.768;2023-03-01T02:32:23;93578.03;;;2.99;100.00
64402;BME280;50724;42.376;23.768;2023-03-01T02:35:25;93580.03;;;2.95;100.00
64402;BME280;50724;42.376;23.768;2023-03-01T02:38:25;93580.13;;;2.94;100.00
64402;BME280;50724;42.376;23.768;2023-03-01T02:41:28;93582.50;;;2.97;100.00
64402;BME280;50724;42.376;23.768;2023-03-01T02:44:31;93581.88;;;2.93;100.00
64402;BME280;50724;42.376;23.768;2023-03-01T02:47:31;93576.84;;;2.92;100.00
64402;BME280;50724;42.376;23.768;2023-03-01T02:57:12;93574.00;;;2.84;100.00
64402;BME280;50724;42.376;23.768;2023-03-01T03:00:19;93581.06;;;2.93;100.00
64402;BME280;50724;42.376;23.768;2023-03-01T03:03:21;93574.38;;;2.90;100.00
64402;BME280;50724;42.376;23.768;2023-03-01T03:06:22;93573.41;;;2.91;100.00
64402;BME280;50724;42.376;23.768;2023-03-01T03:09:22;93583.03;;;2.89;100.00
64402;BME280;50724;42.376;23.768;2023-03-01T03:12:22;93574.03;;;2.95;100.00
64402;BME280;50724;42.376;23.768;2023-03-01T03:15:24;93581.16;;;2.91;100.00
64402;BME280;50724;42.376;23.768;2023-03-01T03:18:25;93585.25;;;2.83;100.00
64402;BME280;50724;42.376;23.768;2023-03-01T03:21:28;93588.13;;;2.91;100.00
64402;BME280;50724;42.376;23.768;2023-03-01T03:24:28;93583.25;;;2.86;100.00
64402;BME280;50724;42.376;23.768;2023-03-01T03:27:38;93585.63;;;2.89;100.00
64402;BME280;50724;42.376;23.768;2023-03-01T03:30:40;93591.41;;;2.93;100.00
64402;BME280;50724;42.376;23.768;2023-03-01T03:33:41;93585.53;;;2.91;100.00
64402;BME280;50724;42.376;23.768;2023-03-01T03:36:41;93589.56;;;2.82;100.00
64402;BME280;50724;42.376;23.768;2023-03-01T03:39:41;93589.19;;;2.75;100.00
64402;BME280;50724;42.376;23.768;2023-03-01T03:42:42;93583.84;;;2.66;100.00
64402;BME280;50724;42.376;23.768;2023-03-01T03:45:44;93590.16;;;2.62;100.00
64402;BME280;50724;42.376;23.768;2023-03-01T03:48:45;93581.06;;;2.56;100.00
64402;BME280;50724;42.376;23.768;2023-03-01T03:51:45;93583.06;;;2.53;100.00
64402;BME280;50724;42.376;23.768;2023-03-01T03:54:46;93590.38;;;2.46;100.00
64402;BME280;50724;42.376;23.768;2023-03-01T03:58:00;93591.22;;;2.47;100.00
64402;BME280;50724;42.376;23.768;2023-03-01T04:01:06;93593.38;;;2.53;100.00
64402;BME280;50724;42.376;23.768;2023-03-01T04:04:07;93589.78;;;2.43;100.00
64402;BME280;50724;42.376;23.768;2023-03-01T04:07:07;93580.69;;;2.37;100.00
64402;BME280;50724;42.376;23.768;2023-03-01T04:10:11;93595.97;;;2.40;100.00
64402;BME280;50724;42.376;23.768;2023-03-01T04:13:16;93587.22;;;2.43;100.00
64402;BME280;50724;42.376;23.768;2023-03-01T04:16:17;93580.88;;;2.47;100.00
64402;BME280;50724;42.376;23.768;2023-03-01T04:19:18;93580.06;;;2.46;100.00
64402;BME280;50724;42.376;23.768;2023-03-01T04:22:18;93594.63;;;2.47;100.00
64402;BME280;50724;42.376;23.768;2023-03-01T04:25:19;93593.59;;;2.50;100.00
64402;BME280;50724;42.376;23.768;2023-03-01T04:28:21;93585.03;;;2.49;100.00
64402;BME280;50724;42.376;23.768;2023-03-01T04:31:24;93592.06;;;2.47;100.00
64402;BME280;50724;42.376;23.768;2023-03-01T04:34:24;93601.13;;;2.53;100.00
64402;BME280;50724;42.376;23.768;2023-03-01T04:37:27;93598.63;;;2.51;100.00
64402;BME280;50724;42.376;23.768;2023-03-01T04:40:27;93586.56;;;2.52;100.00
64402;BME280;50724;42.376;23.768;2023-03-01T04:43:37;93589.25;;;2.50;100.00
64402;BME280;50724;42.376;23.768;2023-03-01T04:46:38;93582.56;;;2.48;100.00
64402;BME280;50724;42.376;23.768;2023-03-01T04:49:39;93588.44;;;2.50;100.00
64402;BME280;50724;42.376;23.768;2023-03-01T04:52:39;93596.28;;;2.48;100.00
64402;BME280;50724;42.376;23.768;2023-03-01T04:55:40;93595.34;;;2.49;100.00
64402;BME280;50724;42.376;23.768;2023-03-01T04:58:40;93597.50;;;2.55;100.00
64402;BME280;50724;42.376;23.768;2023-03-01T05:01:41;93596.69;;;2.55;100.00
64402;BME280;50724;42.376;23.768;2023-03-01T05:04:43;93594.94;;;2.55;100.00
64402;BME280;50724;42.376;23.768;2023-03-01T05:07:44;93589.53;;;2.58;100.00
64402;BME280;50724;42.376;23.768;2023-03-01T05:10:52;93588.72;;;2.58;100.00
64402;BME280;50724;42.376;23.768;2023-03-01T05:13:53;93586.94;;;2.58;100.00
64402;BME280;50724;42.376;23.768;2023-03-01T05:16:55;93595.53;;;2.59;100.00
64402;BME280;50724;42.376;23.768;2023-03-01T05:19:55;93594.38;;;2.63;100.00
64402;BME280;50724;42.376;23.768;2023-03-01T05:22:58;93593.44;;;2.76;100.00
64402;BME280;50724;42.376;23.768;2023-03-01T05:26:00;93598.81;;;2.61;100.00
64402;BME280;50724;42.376;23.768;2023-03-01T05:29:01;93599.97;;;2.69;100.00
64402;BME280;50724;42.376;23.768;2023-03-01T05:32:04;93602.69;;;2.79;100.00
64402;BME280;50724;42.376;23.768;2023-03-01T05:35:05;93604.03;;;2.85;100.00
64402;BME280;50724;42.376;23.768;2023-03-01T05:38:05;93608.59;;;2.81;100.00
64402;BME280;50724;42.376;23.768;2023-03-01T05:41:14;93608.03;;;2.89;100.00
64402;BME280;50724;42.376;23.768;2023-03-01T05:44:14;93607.16;;;2.77;100.00
64402;BME280;50724;42.376;23.768;2023-03-01T05:47:16;93611.59;;;2.75;100.00
64402;BME280;50724;42.376;23.768;2023-03-01T05:50:17;93610.16;;;2.84;100.00
64402;BME280;50724;42.376;23.768;2023-03-01T05:53:21;93618.78;;;2.95;100.00
64402;BME280;50724;42.376;23.768;2023-03-01T05:56:21;93627.78;;;2.90;100.00
64402;BME280;50724;42.376;23.768;2023-03-01T05:59:22;93622.78;;;2.99;100.00
64402;BME280;50724;42.376;23.768;2023-03-01T06:02:22;93621.25;;;2.97;100.00
64402;BME280;50724;42.376;23.768;2023-03-01T06:05:24;93625.91;;;2.92;100.00
64402;BME280;50724;42.376;23.768;2023-03-01T06:08:24;93623.84;;;2.97;100.00
64402;BME280;50724;42.376;23.768;2023-03-01T06:11:27;93627.34;;;2.96;100.00
64402;BME280;50724;42.376;23.768;2023-03-01T06:14:27;93630.22;;;3.04;100.00
64402;BME280;50724;42.376;23.768;2023-03-01T06:17:33;93633.00;;;3.01;100.00
64402;BME280;50724;42.376;23.768;2023-03-01T06:20:37;93634.56;;;3.03;100.00
64402;BME280;50724;42.376;23.768;2023-03-01T06:23:37;93640.50;;;3.16;100.00
64402;BME280;50724;42.376;23.768;2023-03-01T06:26:38;93636.16;;;3.17;100.00
64402;BME280;50724;42.376;23.768;2023-03-01T06:29:38;93634.34;;;3.30;100.00
64402;BME280;50724;42.376;23.768;2023-03-01T06:32:39;93634.84;;;3.35;100.00
64402;BME280;50724;42.376;23.768;2023-03-01T06:35:43;93636.22;;;3.28;100.00
64402;BME280;50724;42.376;23.768;2023-03-01T06:38:43;93635.09;;;3.19;100.00
64402;BME280;50724;42.376;23.768;2023-03-01T06:41:44;93642.66;;;3.22;100.00
64402;BME280;50724;42.376;23.768;2023-03-01T06:44:45;93644.47;;;3.09;100.00
64402;BME280;50724;42.376;23.768;2023-03-01T06:47:46;93647.59;;;3.25;100.00
64402;BME280;50724;42.376;23.768;2023-03-01T06:50:47;93641.59;;;3.25;100.00
64402;BME280;50724;42.376;23.768;2023-03-01T06:53:47;93642.84;;;3.19;100.00
64402;BME280;50724;42.376;23.768;2023-03-01T06:56:48;93643.69;;;3.20;100.00
64402;BME280;50724;42.376;23.768;2023-03-01T06:59:49;93641.94;;;3.20;100.00
64402;BME280;50724;42.376;23.768;2023-03-01T07:02:52;93644.41;;;3.22;100.00
64402;BME280;50724;42.376;23.768;2023-03-01T07:05:55;93642.06;;;3.19;100.00
64402;BME280;50724;42.376;23.768;2023-03-01T07:09:02;93644.94;;;3.38;100.00
64402;BME280;50724;42.376;23.768;2023-03-01T07:12:03;93640.56;;;3.27;100.00
64402;BME280;50724;42.376;23.768;2023-03-01T07:15:04;93636.59;;;3.34;100.00
64402;BME280;50724;42.376;23.768;2023-03-01T07:18:05;93641.00;;;3.21;100.00
64402;BME280;50724;42.376;23.768;2023-03-01T07:21:09;93636.31;;;3.26;100.00
64402;BME280;50724;42.376;23.768;2023-03-01T07:24:11;93648.16;;;3.18;100.00
64402;BME280;50724;42.376;23.768;2023-03-01T07:27:12;93641.41;;;3.28;100.00
64402;BME280;50724;42.376;23.768;2023-03-01T07:30:12;93643.91;;;3.40;100.00
64402;BME280;50724;42.376;23.768;2023-03-01T07:33:13;93641.81;;;3.45;100.00
64402;BME280;50724;42.376;23.768;2023-03-01T07:36:13;93644.53;;;3.44;100.00
64402;BME280;50724;42.376;23.768;2023-03-01T07:39:13;93643.91;;;3.40;100.00
64402;BME280;50724;42.376;23.768;2023-03-01T07:42:14;93637.19;;;3.38;100.00
64402;BME280;50724;42.376;23.768;2023-03-01T07:45:14;93633.06;;;3.59;100.00
64402;BME280;50724;42.376;23.768;2023-03-01T07:48:15;93641.09;;;3.67;100.00
64402;BME280;50724;42.376;23.768;2023-03-01T07:51:15;93637.13;;;3.74;100.00
64402;BME280;50724;42.376;23.768;2023-03-01T07:54:16;93642.06;;;3.77;100.00
64402;BME280;50724;42.376;23.768;2023-03-01T07:57:16;93638.22;;;3.59;100.00
64402;BME280;50724;42.376;23.768;2023-03-01T08:00:17;93628.16;;;3.67;100.00
64402;BME280;50724;42.376;23.768;2023-03-01T08:03:18;93636.13;;;3.64;100.00
64402;BME280;50724;42.376;23.768;2023-03-01T08:06:19;93630.59;;;3.58;100.00
64402;BME280;50724;42.376;23.768;2023-03-01T08:09:20;93627.97;;;3.46;100.00
64402;BME280;50724;42.376;23.768;2023-03-01T08:12:20;93628.69;;;3.48;100.00
64402;BME280;50724;42.376;23.768;2023-03-01T08:15:21;93632.13;;;3.60;100.00
64402;BME280;50724;42.376;23.768;2023-03-01T08:18:21;93623.69;;;3.69;100.00
64402;BME280;50724;42.376;23.768;2023-03-01T08:21:22;93619.13;;;3.73;100.00
64402;BME280;50724;42.376;23.768;2023-03-01T08:24:22;93621.81;;;3.71;100.00
64402;BME280;50724;42.376;23.768;2023-03-01T08:27:23;93625.78;;;3.64;100.00
64402;BME280;50724;42.376;23.768;2023-03-01T08:30:23;93626.22;;;3.82;100.00
64402;BME280;50724;42.376;23.768;2023-03-01T08:33:24;93628.19;;;3.78;100.00
64402;BME280;50724;42.376;23.768;2023-03-01T08:36:27;93630.38;;;3.61;100.00
64402;BME280;50724;42.376;23.768;2023-03-01T08:39:28;93621.59;;;3.74;100.00
64402;BME280;50724;42.376;23.768;2023-03-01T08:42:28;93630.28;;;3.73;100.00
64402;BME280;50724;42.376;23.768;2023-03-01T08:45:28;93627.47;;;3.76;100.00
64402;BME280;50724;42.376;23.768;2023-03-01T08:48:29;93625.50;;;3.80;100.00
64402;BME280;50724;42.376;23.768;2023-03-01T08:51:29;93631.31;;;3.71;100.00
64402;BME280;50724;42.376;23.768;2023-03-01T08:54:32;93629.22;;;3.76;100.00
64402;BME280;50724;42.376;23.768;2023-03-01T08:57:32;93630.91;;;3.88;100.00
64402;BME280;50724;42.376;23.768;2023-03-01T09:00:41;93628.00;;;3.92;100.00
64402;BME280;50724;42.376;23.768;2023-03-01T09:03:43;93634.19;;;3.79;100.00
64402;BME280;50724;42.376;23.768;2023-03-01T09:06:43;93641.13;;;3.78;100.00
64402;BME280;50724;42.376;23.768;2023-03-01T09:09:44;93635.19;;;4.00;100.00
64402;BME280;50724;42.376;23.768;2023-03-01T09:12:44;93637.28;;;3.95;100.00
64402;BME280;50724;42.376;23.768;2023-03-01T09:15:45;93624.34;;;3.84;100.00
64402;BME280;50724;42.376;23.768;2023-03-01T09:18:49;93626.22;;;3.93;100.00
64402;BME280;50724;42.376;23.768;2023-03-01T09:21:50;93621.19;;;3.91;100.00
64402;BME280;50724;42.376;23.768;2023-03-01T09:24:53;93621.53;;;3.87;100.00
64402;BME280;50724;42.376;23.768;2023-03-01T09:27:54;93616.56;;;3.73;100.00
64402;BME280;50724;42.376;23.768;2023-03-01T09:30:58;93613.03;;;3.85;100.00
64402;BME280;50724;42.376;23.768;2023-03-01T09:33:59;93624.13;;;3.87;100.00
64402;BME280;50724;42.376;23.768;2023-03-01T09:36:59;93616.72;;;3.93;100.00
64402;BME280;50724;42.376;23.768;2023-03-01T09:40:06;93616.00;;;3.91;100.00
64402;BME280;50724;42.376;23.768;2023-03-01T09:43:21;93613.22;;;4.05;100.00
64402;BME280;50724;42.376;23.768;2023-03-01T09:46:25;93607.81;;;4.20;100.00
64402;BME280;50724;42.376;23.768;2023-03-01T09:49:36;93605.47;;;4.16;100.00
64402;BME280;50724;42.376;23.768;2023-03-01T09:53:00;93606.75;;;4.22;100.00
64402;BME280;50724;42.376;23.768;2023-03-01T09:56:30;93609.47;;;4.21;100.00
64402;BME280;50724;42.376;23.768;2023-03-01T10:02:49;93601.13;;;4.28;100.00
64402;BME280;50724;42.376;23.768;2023-03-01T10:05:59;93604.75;;;4.37;100.00
64402;BME280;50724;42.376;23.768;2023-03-01T10:09:13;93601.94;;;4.40;100.00
64402;BME280;50724;42.376;23.768;2023-03-01T10:12:18;93596.75;;;4.40;100.00
64402;BME280;50724;42.376;23.768;2023-03-01T10:15:28;93595.72;;;4.31;100.00
64402;BME280;50724;42.376;23.768;2023-03-01T10:18:32;93591.72;;;4.38;100.00
64402;BME280;50724;42.376;23.768;2023-03-01T10:21:38;93591.59;;;4.40;100.00
64402;BME280;50724;42.376;23.768;2023-03-01T10:24:41;93593.00;;;4.33;100.00
64402;BME280;50724;42.376;23.768;2023-03-01T10:27:53;93595.81;;;4.30;100.00
64402;BME280;50724;42.376;23.768;2023-03-01T10:30:57;93592.28;;;4.31;100.00
64402;BME280;50724;42.376;23.768;2023-03-01T10:33:58;93579.94;;;4.23;100.00
64402;BME280;50724;42.376;23.768;2023-03-01T10:37:16;93575.22;;;4.28;100.00
64402;BME280;50724;42.376;23.768;2023-03-01T10:40:21;93568.63;;;4.35;100.00
64402;BME280;50724;42.376;23.768;2023-03-01T10:43:28;93567.34;;;4.52;100.00
64402;BME280;50724;42.376;23.768;2023-03-01T10:49:32;93556.94;;;4.74;100.00
64402;BME280;50724;42.376;23.768;2023-03-01T10:52:36;93557.78;;;4.63;100.00
64402;BME280;50724;42.376;23.768;2023-03-01T10:55:38;93554.00;;;4.67;100.00
64402;BME280;50724;42.376;23.768;2023-03-01T10:58:57;93545.50;;;4.76;100.00
64402;BME280;50724;42.376;23.768;2023-03-01T11:05:19;93538.09;;;4.72;100.00
64402;BME280;50724;42.376;23.768;2023-03-01T11:08:43;93528.06;;;4.78;100.00
64402;BME280;50724;42.376;23.768;2023-03-01T11:11:45;93528.19;;;4.77;100.00
64402;BME280;50724;42.376;23.768;2023-03-01T11:14:48;93540.66;;;4.83;100.00
64402;BME280;50724;42.376;23.768;2023-03-01T11:17:49;93535.03;;;4.67;100.00
64402;BME280;50724;42.376;23.768;2023-03-01T11:29:45;93518.34;;;4.60;100.00
64402;BME280;50724;42.376;23.768;2023-03-01T11:36:03;93516.47;;;4.51;100.00
64402;BME280;50724;42.376;23.768;2023-03-01T11:39:31;93517.88;;;4.55;100.00
64402;BME280;50724;42.376;23.768;2023-03-01T11:42:46;93519.31;;;4.48;100.00
64402;BME280;50724;42.376;23.768;2023-03-01T11:56:03;93511.72;;;4.78;100.00
64402;BME280;50724;42.376;23.768;2023-03-01T12:09:17;93515.47;;;4.85;100.00
64402;BME280;50724;42.376;23.768;2023-03-01T12:15:37;93500.84;;;4.84;100.00
64402;BME280;50724;42.376;23.768;2023-03-01T12:19:00;93500.63;;;4.76;100.00
64402;BME280;50724;42.376;23.768;2023-03-01T12:25:41;93498.53;;;4.70;100.00
64402;BME280;50724;42.376;23.768;2023-03-01T12:45:34;93503.78;;;4.48;100.00
64402;BME280;50724;42.376;23.768;2023-03-01T12:49:02;93493.88;;;4.42;100.00
64402;BME280;50724;42.376;23.768;2023-03-01T12:52:04;93502.03;;;4.26;100.00
64402;BME280;50724;42.376;23.768;2023-03-01T12:58:47;93492.94;;;4.32;100.00
64402;BME280;50724;42.376;23.768;2023-03-01T13:05:22;93497.06;;;4.34;100.00
64402;BME280;50724;42.376;23.768;2023-03-01T13:11:42;93500.16;;;4.28;100.00
64402;BME280;50724;42.376;23.768;2023-03-01T13:14:46;93498.72;;;4.35;100.00
64402;BME280;50724;42.376;23.768;2023-03-01T13:17:47;93505.31;;;4.28;100.00
64402;BME280;50724;42.376;23.768;2023-03-01T13:20:49;93508.13;;;4.36;100.00
64402;BME280;50724;42.376;23.768;2023-03-01T13:23:51;93498.84;;;4.23;100.00
64402;BME280;50724;42.376;23.768;2023-03-01T13:33:47;93493.22;;;3.95;100.00
64402;BME280;50724;42.376;23.768;2023-03-01T13:36:48;93492.41;;;3.95;100.00
64402;BME280;50724;42.376;23.768;2023-03-01T13:39:49;93490.41;;;3.98;100.00
64402;BME280;50724;42.376;23.768;2023-03-01T13:42:52;93490.63;;;4.06;100.00
64402;BME280;50724;42.376;23.768;2023-03-01T13:45:53;93494.75;;;4.09;100.00
64402;BME280;50724;42.376;23.768;2023-03-01T13:48:56;93497.91;;;4.01;100.00
64402;BME280;50724;42.376;23.768;2023-03-01T13:51:57;93494.75;;;4.09;100.00
64402;BME280;50724;42.376;23.768;2023-03-01T13:54:58;93504.97;;;3.99;100.00
64402;BME280;50724;42.376;23.768;2023-03-01T13:58:01;93511.56;;;3.92;100.00
64402;BME280;50724;42.376;23.768;2023-03-01T14:01:06;93506.59;;;3.89;100.00
64402;BME280;50724;42.376;23.768;2023-03-01T14:04:22;93507.91;;;3.84;100.00
64402;BME280;50724;42.376;23.768;2023-03-01T14:07:23;93503.31;;;3.76;100.00
64402;BME280;50724;42.376;23.768;2023-03-01T14:10:37;93510.25;;;3.76;100.00
64402;BME280;50724;42.376;23.768;2023-03-01T14:20:19;93506.84;;;3.75;100.00
64402;BME280;50724;42.376;23.768;2023-03-01T14:23:23;93502.75;;;3.84;100.00
64402;BME280;50724;42.376;23.768;2023-03-01T14:26:24;93502.53;;;3.87;100.00
64402;BME280;50724;42.376;23.768;2023-03-01T14:29:34;93506.25;;;3.83;100.00
64402;BME280;50724;42.376;23.768;2023-03-01T14:32:35;93501.34;;;3.91;100.00
64402;BME280;50724;42.376;23.768;2023-03-01T14:35:36;93501.09;;;4.05;100.00
64402;BME280;50724;42.376;23.768;2023-03-01T14:38:42;93502.75;;;4.17;100.00
64402;BME280;50724;42.376;23.768;2023-03-01T14:41:43;93499.34;;;4.05;100.00
64402;BME280;50724;42.376;23.768;2023-03-01T14:44:46;93503.56;;;4.06;100.00
64402;BME280;50724;42.376;23.768;2023-03-01T14:47:47;93495.66;;;4.08;100.00
64402;BME280;50724;42.376;23.768;2023-03-01T14:50:49;93504.75;;;4.02;100.00
64402;BME280;50724;42.376;23.768;2023-03-01T14:53:51;93504.63;;;4.04;100.00
64402;BME280;50724;42.376;23.768;2023-03-01T14:56:53;93496.75;;;4.05;100.00
64402;BME280;50724;42.376;23.768;2023-03-01T14:59:58;93507.22;;;4.04;100.00
64402;BME280;50724;42.376;23.768;2023-03-01T15:03:14;93500.84;;;4.08;100.00
64402;BME280;50724;42.376;23.768;2023-03-01T15:06:19;93501.09;;;4.05;100.00
64402;BME280;50724;42.376;23.768;2023-03-01T15:09:21;93494.75;;;4.09;100.00
64402;BME280;50724;42.376;23.768;2023-03-01T15:18:29;93497.34;;;3.87;100.00
64402;BME280;50724;42.376;23.768;2023-03-01T15:21:33;93496.16;;;3.80;100.00
64402;BME280;50724;42.376;23.768;2023-03-01T15:24:34;93506.13;;;3.73;100.00
64402;BME280;50724;42.376;23.768;2023-03-01T15:27:36;93498.28;;;3.75;100.00
64402;BME280;50724;42.376;23.768;2023-03-01T15:30:36;93500.72;;;3.76;100.00
64402;BME280;50724;42.376;23.768;2023-03-01T15:33:38;93499.06;;;3.64;100.00
64402;BME280;50724;42.376;23.768;2023-03-01T15:36:45;93493.91;;;3.75;100.00
64402;BME280;50724;42.376;23.768;2023-03-01T15:39:54;93494.50;;;3.68;100.00
64402;BME280;50724;42.376;23.768;2023-03-01T15:42:55;93498.13;;;3.65;100.00
64402;BME280;50724;42.376;23.768;2023-03-01T15:45:56;93491.19;;;3.55;100.00
64402;BME280;50724;42.376;23.768;2023-03-01T15:49:00;93495.28;;;3.57;100.00
64402;BME280;50724;42.376;23.768;2023-03-01T15:52:02;93490.13;;;3.68;100.00
64402;BME280;50724;42.376;23.768;2023-03-01T15:55:05;93482.16;;;3.60;100.00
64402;BME280;50724;42.376;23.768;2023-03-01T15:58:12;93491.31;;;3.53;100.00
64402;BME280;50724;42.376;23.768;2023-03-01T16:01:15;93494.94;;;3.51;100.00
64402;BME280;50724;42.376;23.768;2023-03-01T16:04:17;93483.06;;;3.48;100.00
64402;BME280;50724;42.376;23.768;2023-03-01T16:07:22;93493.41;;;3.48;100.00
64402;BME280;50724;42.376;23.768;2023-03-01T16:10:23;93489.91;;;3.49;100.00
64402;BME280;50724;42.376;23.768;2023-03-01T16:13:24;93485.06;;;3.44;100.00
64402;BME280;50724;42.376;23.768;2023-03-01T16:16:25;93485.06;;;3.44;100.00
64402;BME280;50724;42.376;23.768;2023-03-01T16:19:25;93487.75;;;3.54;100.00
64402;BME280;50724;42.376;23.768;2023-03-01T16:22:26;93489.63;;;3.52;100.00
64402;BME280;50724;42.376;23.768;2023-03-01T16:25:27;93494.00;;;3.52;100.00
64402;BME280;50724;42.376;23.768;2023-03-01T16:28:28;93497.66;;;3.49;100.00
64402;BME280;50724;42.376;23.768;2023-03-01T16:31:28;93490.91;;;3.35;100.00
64402;BME280;50724;42.376;23.768;2023-03-01T16:34:29;93496.13;;;3.46;100.00
64402;BME280;50724;42.376;23.768;2023-03-01T16:37:32;93493.13;;;3.40;100.00
64402;BME280;50724;42.376;23.768;2023-03-01T16:40:32;93493.47;;;3.35;100.00
64402;BME280;50724;42.376;23.768;2023-03-01T16:43:33;93490.56;;;3.40;100.00
64402;BME280;50724;42.376;23.768;2023-03-01T16:46:33;93497.13;;;3.33;100.00
64402;BME280;50724;42.376;23.768;2023-03-01T16:49:34;93508.66;;;3.40;100.00
64402;BME280;50724;42.376;23.768;2023-03-01T16:52:34;93501.50;;;3.32;100.00
64402;BME280;50724;42.376;23.768;2023-03-01T16:55:35;93511.22;;;3.40;100.00
64402;BME280;50724;42.376;23.768;2023-03-01T16:58:36;93503.13;;;3.33;100.00
64402;BME280;50724;42.376;23.768;2023-03-01T17:01:37;93496.47;;;3.42;100.00
64402;BME280;50724;42.376;23.768;2023-03-01T17:04:41;93497.59;;;3.38;100.00
64402;BME280;50724;42.376;23.768;2023-03-01T17:07:41;93493.38;;;3.37;100.00
64402;BME280;50724;42.376;23.768;2023-03-01T17:10:42;93490.81;;;3.37;100.00
64402;BME280;50724;42.376;23.768;2023-03-01T17:13:45;93488.91;;;3.28;100.00
64402;BME280;50724;42.376;23.768;2023-03-01T17:16:46;93484.41;;;3.19;100.00
64402;BME280;50724;42.376;23.768;2023-03-01T17:19:46;93486.88;;;3.20;100.00
64402;BME280;50724;42.376;23.768;2023-03-01T17:22:47;93487.81;;;3.19;100.00
64402;BME280;50724;42.376;23.768;2023-03-01T17:25:56;93481.16;;;3.28;100.00
64402;BME280;50724;42.376;23.768;2023-03-01T17:28:57;93480.53;;;3.24;100.00
64402;BME280;50724;42.376;23.768;2023-03-01T17:32:07;93481.38;;;3.25;100.00
64402;BME280;50724;42.376;23.768;2023-03-01T17:35:08;93476.69;;;3.30;100.00
64402;BME280;50724;42.376;23.768;2023-03-01T17:38:11;93485.22;;;3.19;100.00
64402;BME280;50724;42.376;23.768;2023-03-01T17:41:11;93475.00;;;3.18;100.00